sensor_id;sensor_type;location;lat;lon;timestamp;P1;durP1;ratioP1;P2;durP2;ratioP2
80115;SDS011;69423;47.608;19.366;2023-07-13T00:00:29;12.00;;;12.00;;
80115;SDS011;69423;47.608;19.366;2023-07-13T00:01:02;11.40;;;11.40;;
80115;SDS011;69423;47.608;19.366;2023-07-13T00:01:33;10.40;;;10.40;;
80115;SDS011;69423;47.608;19.366;2023-07-13T00:02:04;11.07;;;11.07;;
80115;SDS011;69423;47.608;19.366;2023-07-13T00:02:35;10.90;;;10.90;;
80115;SDS011;69423;47.608;19.366;2023-07-13T00:03:07;10.67;;;10.67;;
80115;SDS011;69423;47.608;19.366;2023-07-13T00:03:38;9.87;;;9.87;;
80115;SDS011;69423;47.608;19.366;2023-07-13T00:04:11;10.50;;;10.50;;
80115;SDS011;69423;47.608;19.366;2023-07-13T00:04:44;10.10;;;10.10;;
80115;SDS011;69423;47.608;19.366;2023-07-13T00:05:15;10.30;;;10.30;;
80115;SDS011;69423;47.608;19.366;2023-07-13T00:05:46;10.43;;;10.43;;
80115;SDS011;69423;47.608;19.366;2023-07-13T00:06:18;9.87;;;9.87;;
80115;SDS011;69423;47.608;19.366;2023-07-13T00:06:51;9.83;;;9.83;;
80115;SDS011;69423;47.608;19.366;2023-07-13T00:07:22;9.70;;;9.70;;
80115;SDS011;69423;47.608;19.366;2023-07-13T00:07:54;9.60;;;9.60;;
80115;SDS011;69423;47.608;19.366;2023-07-13T00:08:25;9.57;;;9.57;;
80115;SDS011;69423;47.608;19.366;2023-07-13T00:08:56;9.37;;;9.37;;
80115;SDS011;69423;47.608;19.366;2023-07-13T00:09:27;9.30;;;9.30;;
80115;SDS011;69423;47.608;19.366;2023-07-13T00:09:58;9.23;;;9.23;;
80115;SDS011;69423;47.608;19.366;2023-07-13T00:10:29;9.67;;;9.67;;
80115;SDS011;69423;47.608;19.366;2023-07-13T00:11:01;9.23;;;9.23;;
80115;SDS011;69423;47.608;19.366;2023-07-13T00:11:33;8.83;;;8.83;;
80115;SDS011;69423;47.608;19.366;2023-07-13T00:12:04;8.53;;;8.53;;
80115;SDS011;69423;47.608;19.366;2023-07-13T00:12:37;8.70;;;8.70;;
80115;SDS011;69423;47.608;19.366;2023-07-13T00:13:09;8.60;;;8.60;;
80115;SDS011;69423;47.608;19.366;2023-07-13T00:13:40;9.10;;;9.10;;
80115;SDS011;69423;47.608;19.366;2023-07-13T00:14:11;8.13;;;8.13;;
80115;SDS011;69423;47.608;19.366;2023-07-13T00:14:42;8.73;;;8.73;;
80115;SDS011;69423;47.608;19.366;2023-07-13T00:15:16;8.87;;;8.87;;
80115;SDS011;69423;47.608;19.366;2023-07-13T00:15:53;8.83;;;8.83;;
80115;SDS011;69423;47.608;19.366;2023-07-13T00:16:24;9.47;;;9.47;;
80115;SDS011;69423;47.608;19.366;2023-07-13T00:16:55;8.93;;;8.93;;
80115;SDS011;69423;47.608;19.366;2023-07-13T00:17:27;8.93;;;8.93;;
80115;SDS011;69423;47.608;19.366;2023-07-13T00:17:58;8.83;;;8.83;;
80115;SDS011;69423;47.608;19.366;2023-07-13T00:18:31;8.87;;;8.87;;
80115;SDS011;69423;47.608;19.366;2023-07-13T00:19:02;9.13;;;9.13;;
80115;SDS011;69423;47.608;19.366;2023-07-13T00:19:34;9.27;;;9.27;;
80115;SDS011;69423;47.608;19.366;2023-07-13T00:20:06;8.37;;;8.37;;
80115;SDS011;69423;47.608;19.366;2023-07-13T00:20:38;8.50;;;8.50;;
80115;SDS011;69423;47.608;19.366;2023-07-13T00:21:12;8.37;;;8.37;;
80115;SDS011;69423;47.608;19.366;2023-07-13T00:21:43;8.50;;;8.50;;
80115;SDS011;69423;47.608;19.366;2023-07-13T00:22:14;8.47;;;8.47;;
80115;SDS011;69423;47.608;19.366;2023-07-13T00:22:45;7.83;;;7.83;;
80115;SDS011;69423;47.608;19.366;2023-07-13T00:23:16;8.13;;;8.13;;
80115;SDS011;69423;47.608;19.366;2023-07-13T00:23:48;7.77;;;7.77;;
80115;SDS011;69423;47.608;19.366;2023-07-13T00:24:19;7.40;;;7.40;;
80115;SDS011;69423;47.608;19.366;2023-07-13T00:24:54;7.93;;;7.93;;
80115;SDS011;69423;47.608;19.366;2023-07-13T00:25:27;7.17;;;7.17;;
80115;SDS011;69423;47.608;19.366;2023-07-13T00:25:59;7.63;;;7.63;;
80115;SDS011;69423;47.608;19.366;2023-07-13T00:26:31;7.37;;;7.37;;
80115;SDS011;69423;47.608;19.366;2023-07-13T00:27:03;7.50;;;7.50;;
80115;SDS011;69423;47.608;19.366;2023-07-13T00:27:34;7.47;;;7.47;;
80115;SDS011;69423;47.608;19.366;2023-07-13T00:28:05;7.83;;;7.83;;
80115;SDS011;69423;47.608;19.366;2023-07-13T00:28:36;7.70;;;7.70;;
80115;SDS011;69423;47.608;19.366;2023-07-13T00:29:07;7.00;;;7.00;;
80115;SDS011;69423;47.608;19.366;2023-07-13T00:29:39;7.00;;;7.00;;
80115;SDS011;69423;47.608;19.366;2023-07-13T00:30:10;7.00;;;7.00;;
80115;SDS011;69423;47.608;19.366;2023-07-13T00:30:42;7.07;;;7.07;;
80115;SDS011;69423;47.608;19.366;2023-07-13T00:31:13;7.03;;;7.03;;
80115;SDS011;69423;47.608;19.366;2023-07-13T00:31:44;6.87;;;6.87;;
80115;SDS011;69423;47.608;19.366;2023-07-13T00:32:16;7.23;;;7.23;;
80115;SDS011;69423;47.608;19.366;2023-07-13T00:32:47;6.90;;;6.90;;
80115;SDS011;69423;47.608;19.366;2023-07-13T00:33:18;7.23;;;7.23;;
80115;SDS011;69423;47.608;19.366;2023-07-13T00:33:49;6.97;;;6.97;;
80115;SDS011;69423;47.608;19.366;2023-07-13T00:34:20;7.00;;;7.00;;
80115;SDS011;69423;47.608;19.366;2023-07-13T00:34:52;7.20;;;7.20;;
80115;SDS011;69423;47.608;19.366;2023-07-13T00:35:23;7.07;;;7.07;;
80115;SDS011;69423;47.608;19.366;2023-07-13T00:35:54;7.50;;;7.50;;
80115;SDS011;69423;47.608;19.366;2023-07-13T00:36:26;7.13;;;7.13;;
80115;SDS011;69423;47.608;19.366;2023-07-13T00:36:57;6.93;;;6.93;;
80115;SDS011;69423;47.608;19.366;2023-07-13T00:37:28;7.10;;;7.10;;
80115;SDS011;69423;47.608;19.366;2023-07-13T00:37:59;7.07;;;7.07;;
80115;SDS011;69423;47.608;19.366;2023-07-13T00:38:30;7.13;;;7.13;;
80115;SDS011;69423;47.608;19.366;2023-07-13T00:39:02;6.97;;;6.97;;
80115;SDS011;69423;47.608;19.366;2023-07-13T00:39:34;7.40;;;7.40;;
80115;SDS011;69423;47.608;19.366;2023-07-13T00:40:07;7.80;;;7.80;;
80115;SDS011;69423;47.608;19.366;2023-07-13T00:40:40;7.90;;;7.90;;
80115;SDS011;69423;47.608;19.366;2023-07-13T00:41:11;7.67;;;7.67;;
80115;SDS011;69423;47.608;19.366;2023-07-13T00:41:42;7.33;;;7.30;;
80115;SDS011;69423;47.608;19.366;2023-07-13T00:42:14;7.93;;;7.93;;
80115;SDS011;69423;47.608;19.366;2023-07-13T00:42:45;7.43;;;7.43;;
80115;SDS011;69423;47.608;19.366;2023-07-13T00:43:17;7.03;;;7.03;;
80115;SDS011;69423;47.608;19.366;2023-07-13T00:43:51;7.37;;;7.37;;
80115;SDS011;69423;47.608;19.366;2023-07-13T00:44:22;7.43;;;7.43;;
80115;SDS011;69423;47.608;19.366;2023-07-13T00:45:01;6.90;;;6.90;;
80115;SDS011;69423;47.608;19.366;2023-07-13T00:46:48;7.13;;;7.13;;
80115;SDS011;69423;47.608;19.366;2023-07-13T00:47:20;7.37;;;7.37;;
80115;SDS011;69423;47.608;19.366;2023-07-13T00:47:51;7.40;;;7.40;;
80115;SDS011;69423;47.608;19.366;2023-07-13T00:48:24;7.90;;;7.90;;
80115;SDS011;69423;47.608;19.366;2023-07-13T00:49:01;8.33;;;8.33;;
80115;SDS011;69423;47.608;19.366;2023-07-13T00:49:35;7.30;;;7.30;;
80115;SDS011;69423;47.608;19.366;2023-07-13T00:50:10;7.43;;;7.43;;
80115;SDS011;69423;47.608;19.366;2023-07-13T00:50:44;7.60;;;7.60;;
80115;SDS011;69423;47.608;19.366;2023-07-13T00:51:21;7.33;;;7.33;;
80115;SDS011;69423;47.608;19.366;2023-07-13T00:52:04;7.63;;;7.63;;
80115;SDS011;69423;47.608;19.366;2023-07-13T00:52:40;7.07;;;7.07;;
80115;SDS011;69423;47.608;19.366;2023-07-13T00:53:15;7.33;;;7.33;;
80115;SDS011;69423;47.608;19.366;2023-07-13T00:53:48;7.20;;;7.20;;
80115;SDS011;69423;47.608;19.366;2023-07-13T00:54:30;7.40;;;7.40;;
80115;SDS011;69423;47.608;19.366;2023-07-13T00:55:14;7.33;;;7.33;;
80115;SDS011;69423;47.608;19.366;2023-07-13T00:55:48;7.00;;;7.00;;
80115;SDS011;69423;47.608;19.366;2023-07-13T00:56:22;7.50;;;7.50;;
80115;SDS011;69423;47.608;19.366;2023-07-13T00:56:54;7.43;;;7.43;;
80115;SDS011;69423;47.608;19.366;2023-07-13T00:57:29;7.03;;;7.03;;
80115;SDS011;69423;47.608;19.366;2023-07-13T00:58:00;7.27;;;7.27;;
80115;SDS011;69423;47.608;19.366;2023-07-13T00:58:32;6.93;;;6.93;;
80115;SDS011;69423;47.608;19.366;2023-07-13T00:59:05;7.27;;;7.27;;
80115;SDS011;69423;47.608;19.366;2023-07-13T00:59:39;7.10;;;7.10;;
80115;SDS011;69423;47.608;19.366;2023-07-13T01:00:13;7.23;;;7.23;;
80115;SDS011;69423;47.608;19.366;2023-07-13T01:00:45;7.47;;;7.47;;
80115;SDS011;69423;47.608;19.366;2023-07-13T01:01:19;7.80;;;7.80;;
80115;SDS011;69423;47.608;19.366;2023-07-13T01:01:50;7.77;;;7.77;;
80115;SDS011;69423;47.608;19.366;2023-07-13T01:02:21;7.60;;;7.60;;
80115;SDS011;69423;47.608;19.366;2023-07-13T01:02:53;7.30;;;7.30;;
80115;SDS011;69423;47.608;19.366;2023-07-13T01:03:24;6.77;;;6.73;;
80115;SDS011;69423;47.608;19.366;2023-07-13T01:03:55;6.97;;;6.77;;
80115;SDS011;69423;47.608;19.366;2023-07-13T01:04:27;7.67;;;7.63;;
80115;SDS011;69423;47.608;19.366;2023-07-13T01:04:58;7.07;;;7.07;;
80115;SDS011;69423;47.608;19.366;2023-07-13T01:05:30;7.10;;;7.10;;
80115;SDS011;69423;47.608;19.366;2023-07-13T01:06:04;6.87;;;6.87;;
80115;SDS011;69423;47.608;19.366;2023-07-13T01:06:36;7.53;;;7.53;;
80115;SDS011;69423;47.608;19.366;2023-07-13T01:07:08;7.23;;;7.23;;
80115;SDS011;69423;47.608;19.366;2023-07-13T01:07:39;7.07;;;7.07;;
80115;SDS011;69423;47.608;19.366;2023-07-13T01:08:12;6.87;;;6.87;;
80115;SDS011;69423;47.608;19.366;2023-07-13T01:08:43;7.53;;;7.53;;
80115;SDS011;69423;47.608;19.366;2023-07-13T01:09:15;7.00;;;7.00;;
80115;SDS011;69423;47.608;19.366;2023-07-13T01:09:46;6.60;;;6.60;;
80115;SDS011;69423;47.608;19.366;2023-07-13T01:10:19;6.70;;;6.70;;
80115;SDS011;69423;47.608;19.366;2023-07-13T01:10:56;7.47;;;7.47;;
80115;SDS011;69423;47.608;19.366;2023-07-13T01:11:28;6.73;;;6.73;;
80115;SDS011;69423;47.608;19.366;2023-07-13T01:12:00;7.13;;;7.13;;
80115;SDS011;69423;47.608;19.366;2023-07-13T01:12:31;7.17;;;7.17;;
80115;SDS011;69423;47.608;19.366;2023-07-13T01:13:02;7.10;;;7.10;;
80115;SDS011;69423;47.608;19.366;2023-07-13T01:13:34;6.70;;;6.70;;
80115;SDS011;69423;47.608;19.366;2023-07-13T01:14:05;6.70;;;6.70;;
80115;SDS011;69423;47.608;19.366;2023-07-13T01:14:36;6.43;;;6.43;;
80115;SDS011;69423;47.608;19.366;2023-07-13T01:16:11;5.93;;;5.87;;
80115;SDS011;69423;47.608;19.366;2023-07-13T01:16:55;4.87;;;4.87;;
80115;SDS011;69423;47.608;19.366;2023-07-13T01:17:30;4.63;;;4.63;;
80115;SDS011;69423;47.608;19.366;2023-07-13T01:18:04;4.30;;;4.30;;
80115;SDS011;69423;47.608;19.366;2023-07-13T01:18:37;4.60;;;4.60;;
80115;SDS011;69423;47.608;19.366;2023-07-13T01:19:54;4.80;;;4.80;;
80115;SDS011;69423;47.608;19.366;2023-07-13T01:20:06;4.33;;;4.33;;
80115;SDS011;69423;47.608;19.366;2023-07-13T01:20:39;4.80;;;4.80;;
80115;SDS011;69423;47.608;19.366;2023-07-13T01:21:11;4.70;;;4.70;;
80115;SDS011;69423;47.608;19.366;2023-07-13T01:21:42;4.53;;;4.53;;
80115;SDS011;69423;47.608;19.366;2023-07-13T01:22:15;4.93;;;4.93;;
80115;SDS011;69423;47.608;19.366;2023-07-13T01:22:47;4.60;;;4.60;;
80115;SDS011;69423;47.608;19.366;2023-07-13T01:23:18;4.77;;;4.77;;
80115;SDS011;69423;47.608;19.366;2023-07-13T01:23:49;4.97;;;4.97;;
80115;SDS011;69423;47.608;19.366;2023-07-13T01:24:21;4.87;;;4.87;;
80115;SDS011;69423;47.608;19.366;2023-07-13T01:24:52;5.30;;;5.30;;
80115;SDS011;69423;47.608;19.366;2023-07-13T01:25:24;5.37;;;5.37;;
80115;SDS011;69423;47.608;19.366;2023-07-13T01:25:55;5.27;;;5.27;;
80115;SDS011;69423;47.608;19.366;2023-07-13T01:26:28;5.13;;;5.13;;
80115;SDS011;69423;47.608;19.366;2023-07-13T01:26:59;5.37;;;5.37;;
80115;SDS011;69423;47.608;19.366;2023-07-13T01:27:30;6.00;;;6.00;;
80115;SDS011;69423;47.608;19.366;2023-07-13T01:28:02;6.40;;;6.40;;
80115;SDS011;69423;47.608;19.366;2023-07-13T01:28:34;6.30;;;6.30;;
80115;SDS011;69423;47.608;19.366;2023-07-13T01:29:07;6.80;;;6.80;;
80115;SDS011;69423;47.608;19.366;2023-07-13T01:29:39;7.33;;;7.33;;
80115;SDS011;69423;47.608;19.366;2023-07-13T01:30:12;7.07;;;7.07;;
80115;SDS011;69423;47.608;19.366;2023-07-13T01:30:44;6.73;;;6.73;;
80115;SDS011;69423;47.608;19.366;2023-07-13T01:31:16;6.90;;;6.90;;
80115;SDS011;69423;47.608;19.366;2023-07-13T01:31:47;7.17;;;7.17;;
80115;SDS011;69423;47.608;19.366;2023-07-13T01:32:19;6.97;;;6.97;;
80115;SDS011;69423;47.608;19.366;2023-07-13T01:32:52;7.10;;;7.10;;
80115;SDS011;69423;47.608;19.366;2023-07-13T01:33:23;6.87;;;6.87;;
80115;SDS011;69423;47.608;19.366;2023-07-13T01:33:54;7.17;;;7.17;;
80115;SDS011;69423;47.608;19.366;2023-07-13T01:34:28;6.67;;;6.67;;
80115;SDS011;69423;47.608;19.366;2023-07-13T01:34:59;6.97;;;6.97;;
80115;SDS011;69423;47.608;19.366;2023-07-13T01:35:30;6.87;;;6.87;;
80115;SDS011;69423;47.608;19.366;2023-07-13T01:36:01;6.57;;;6.57;;
80115;SDS011;69423;47.608;19.366;2023-07-13T01:36:32;6.73;;;6.73;;
80115;SDS011;69423;47.608;19.366;2023-07-13T01:37:04;6.80;;;6.80;;
80115;SDS011;69423;47.608;19.366;2023-07-13T01:37:36;7.10;;;7.10;;
80115;SDS011;69423;47.608;19.366;2023-07-13T01:38:07;7.23;;;7.23;;
80115;SDS011;69423;47.608;19.366;2023-07-13T01:38:38;7.37;;;7.37;;
80115;SDS011;69423;47.608;19.366;2023-07-13T01:39:09;7.50;;;7.50;;
80115;SDS011;69423;47.608;19.366;2023-07-13T01:39:41;7.40;;;7.40;;
80115;SDS011;69423;47.608;19.366;2023-07-13T01:40:12;7.00;;;7.00;;
80115;SDS011;69423;47.608;19.366;2023-07-13T01:40:43;7.40;;;7.40;;
80115;SDS011;69423;47.608;19.366;2023-07-13T01:41:14;7.33;;;7.33;;
80115;SDS011;69423;47.608;19.366;2023-07-13T01:41:45;7.17;;;7.17;;
80115;SDS011;69423;47.608;19.366;2023-07-13T01:42:16;7.53;;;7.53;;
80115;SDS011;69423;47.608;19.366;2023-07-13T01:42:47;7.60;;;7.60;;
80115;SDS011;69423;47.608;19.366;2023-07-13T01:43:19;7.77;;;7.77;;
80115;SDS011;69423;47.608;19.366;2023-07-13T01:43:50;7.87;;;7.87;;
80115;SDS011;69423;47.608;19.366;2023-07-13T01:44:21;7.60;;;7.60;;
80115;SDS011;69423;47.608;19.366;2023-07-13T01:44:52;7.83;;;7.83;;
80115;SDS011;69423;47.608;19.366;2023-07-13T01:45:23;7.77;;;7.77;;
80115;SDS011;69423;47.608;19.366;2023-07-13T01:45:55;7.27;;;7.27;;
80115;SDS011;69423;47.608;19.366;2023-07-13T01:46:26;6.83;;;6.83;;
80115;SDS011;69423;47.608;19.366;2023-07-13T01:46:57;6.83;;;6.83;;
80115;SDS011;69423;47.608;19.366;2023-07-13T01:47:28;7.03;;;7.03;;
80115;SDS011;69423;47.608;19.366;2023-07-13T01:48:01;6.93;;;6.93;;
80115;SDS011;69423;47.608;19.366;2023-07-13T01:48:32;7.27;;;7.27;;
80115;SDS011;69423;47.608;19.366;2023-07-13T01:49:03;7.33;;;7.33;;
80115;SDS011;69423;47.608;19.366;2023-07-13T01:49:34;7.17;;;7.17;;
80115;SDS011;69423;47.608;19.366;2023-07-13T01:50:05;7.37;;;7.37;;
80115;SDS011;69423;47.608;19.366;2023-07-13T01:50:36;7.30;;;7.30;;
80115;SDS011;69423;47.608;19.366;2023-07-13T01:51:08;7.70;;;7.70;;
80115;SDS011;69423;47.608;19.366;2023-07-13T01:51:39;7.30;;;7.30;;
80115;SDS011;69423;47.608;19.366;2023-07-13T01:52:10;7.40;;;7.40;;
80115;SDS011;69423;47.608;19.366;2023-07-13T01:52:41;6.87;;;6.87;;
80115;SDS011;69423;47.608;19.366;2023-07-13T01:53:12;7.47;;;7.47;;
80115;SDS011;69423;47.608;19.366;2023-07-13T01:53:43;7.60;;;7.60;;
80115;SDS011;69423;47.608;19.366;2023-07-13T01:54:14;7.57;;;7.57;;
80115;SDS011;69423;47.608;19.366;2023-07-13T01:54:45;7.20;;;7.20;;
80115;SDS011;69423;47.608;19.366;2023-07-13T01:55:16;7.27;;;7.27;;
80115;SDS011;69423;47.608;19.366;2023-07-13T01:55:47;7.47;;;7.47;;
80115;SDS011;69423;47.608;19.366;2023-07-13T01:56:18;7.13;;;7.13;;
80115;SDS011;69423;47.608;19.366;2023-07-13T01:56:50;7.07;;;7.07;;
80115;SDS011;69423;47.608;19.366;2023-07-13T01:57:21;6.67;;;6.67;;
80115;SDS011;69423;47.608;19.366;2023-07-13T01:57:52;7.47;;;7.47;;
80115;SDS011;69423;47.608;19.366;2023-07-13T01:58:23;6.97;;;6.97;;
80115;SDS011;69423;47.608;19.366;2023-07-13T01:58:54;7.13;;;7.13;;
80115;SDS011;69423;47.608;19.366;2023-07-13T01:59:25;7.47;;;7.47;;
80115;SDS011;69423;47.608;19.366;2023-07-13T01:59:56;7.30;;;7.30;;
80115;SDS011;69423;47.608;19.366;2023-07-13T02:00:27;7.03;;;7.03;;
80115;SDS011;69423;47.608;19.366;2023-07-13T02:00:58;7.20;;;7.20;;
80115;SDS011;69423;47.608;19.366;2023-07-13T02:01:29;7.20;;;7.20;;
80115;SDS011;69423;47.608;19.366;2023-07-13T02:02:00;7.20;;;7.17;;
80115;SDS011;69423;47.608;19.366;2023-07-13T02:02:31;7.30;;;7.27;;
80115;SDS011;69423;47.608;19.366;2023-07-13T02:03:02;7.07;;;7.03;;
80115;SDS011;69423;47.608;19.366;2023-07-13T02:03:33;8.10;;;8.10;;
80115;SDS011;69423;47.608;19.366;2023-07-13T02:04:04;7.50;;;7.50;;
80115;SDS011;69423;47.608;19.366;2023-07-13T02:04:35;7.07;;;7.07;;
80115;SDS011;69423;47.608;19.366;2023-07-13T02:05:07;7.10;;;7.10;;
80115;SDS011;69423;47.608;19.366;2023-07-13T02:05:38;7.27;;;7.27;;
80115;SDS011;69423;47.608;19.366;2023-07-13T02:06:09;7.53;;;7.53;;
80115;SDS011;69423;47.608;19.366;2023-07-13T02:06:40;7.73;;;7.73;;
80115;SDS011;69423;47.608;19.366;2023-07-13T02:07:11;7.43;;;7.43;;
80115;SDS011;69423;47.608;19.366;2023-07-13T02:07:42;6.93;;;6.93;;
80115;SDS011;69423;47.608;19.366;2023-07-13T02:08:13;7.13;;;7.13;;
80115;SDS011;69423;47.608;19.366;2023-07-13T02:08:44;7.23;;;7.23;;
80115;SDS011;69423;47.608;19.366;2023-07-13T02:09:16;7.20;;;7.20;;
80115;SDS011;69423;47.608;19.366;2023-07-13T02:09:47;7.27;;;7.27;;
80115;SDS011;69423;47.608;19.366;2023-07-13T02:10:18;7.57;;;7.57;;
80115;SDS011;69423;47.608;19.366;2023-07-13T02:10:49;7.17;;;7.17;;
80115;SDS011;69423;47.608;19.366;2023-07-13T02:11:20;7.13;;;7.13;;
80115;SDS011;69423;47.608;19.366;2023-07-13T02:11:51;7.63;;;7.60;;
80115;SDS011;69423;47.608;19.366;2023-07-13T02:12:22;6.97;;;6.97;;
80115;SDS011;69423;47.608;19.366;2023-07-13T02:12:53;7.43;;;7.43;;
80115;SDS011;69423;47.608;19.366;2023-07-13T02:13:24;7.50;;;7.50;;
80115;SDS011;69423;47.608;19.366;2023-07-13T02:13:55;6.90;;;6.90;;
80115;SDS011;69423;47.608;19.366;2023-07-13T02:14:26;7.23;;;7.23;;
80115;SDS011;69423;47.608;19.366;2023-07-13T02:14:57;6.50;;;6.50;;
80115;SDS011;69423;47.608;19.366;2023-07-13T02:15:28;6.57;;;6.57;;
80115;SDS011;69423;47.608;19.366;2023-07-13T02:15:59;7.00;;;7.00;;
80115;SDS011;69423;47.608;19.366;2023-07-13T02:16:31;6.93;;;6.93;;
80115;SDS011;69423;47.608;19.366;2023-07-13T02:17:02;7.43;;;7.43;;
80115;SDS011;69423;47.608;19.366;2023-07-13T02:17:34;7.00;;;7.00;;
80115;SDS011;69423;47.608;19.366;2023-07-13T02:18:05;6.60;;;6.60;;
80115;SDS011;69423;47.608;19.366;2023-07-13T02:18:36;6.80;;;6.80;;
80115;SDS011;69423;47.608;19.366;2023-07-13T02:19:08;7.00;;;7.00;;
80115;SDS011;69423;47.608;19.366;2023-07-13T02:19:39;6.73;;;6.73;;
80115;SDS011;69423;47.608;19.366;2023-07-13T02:20:10;6.90;;;6.90;;
80115;SDS011;69423;47.608;19.366;2023-07-13T02:20:41;7.80;;;7.80;;
80115;SDS011;69423;47.608;19.366;2023-07-13T02:21:12;7.67;;;7.67;;
80115;SDS011;69423;47.608;19.366;2023-07-13T02:21:43;7.27;;;7.27;;
80115;SDS011;69423;47.608;19.366;2023-07-13T02:22:14;6.87;;;6.87;;
80115;SDS011;69423;47.608;19.366;2023-07-13T02:22:45;7.07;;;7.07;;
80115;SDS011;69423;47.608;19.366;2023-07-13T02:23:16;7.20;;;7.20;;
80115;SDS011;69423;47.608;19.366;2023-07-13T02:23:47;7.27;;;7.27;;
80115;SDS011;69423;47.608;19.366;2023-07-13T02:24:19;7.63;;;7.63;;
80115;SDS011;69423;47.608;19.366;2023-07-13T02:24:51;7.47;;;7.47;;
80115;SDS011;69423;47.608;19.366;2023-07-13T02:25:22;7.43;;;7.43;;
80115;SDS011;69423;47.608;19.366;2023-07-13T02:25:56;7.17;;;7.17;;
80115;SDS011;69423;47.608;19.366;2023-07-13T02:26:27;7.20;;;7.20;;
80115;SDS011;69423;47.608;19.366;2023-07-13T02:26:58;7.07;;;7.07;;
80115;SDS011;69423;47.608;19.366;2023-07-13T02:27:29;7.33;;;7.33;;
80115;SDS011;69423;47.608;19.366;2023-07-13T02:28:00;6.90;;;6.90;;
80115;SDS011;69423;47.608;19.366;2023-07-13T02:28:31;6.77;;;6.77;;
80115;SDS011;69423;47.608;19.366;2023-07-13T02:29:02;6.40;;;6.40;;
80115;SDS011;69423;47.608;19.366;2023-07-13T02:29:33;6.43;;;6.43;;
80115;SDS011;69423;47.608;19.366;2023-07-13T02:30:05;7.13;;;7.13;;
80115;SDS011;69423;47.608;19.366;2023-07-13T02:30:37;7.27;;;7.27;;
80115;SDS011;69423;47.608;19.366;2023-07-13T02:31:10;6.90;;;6.90;;
80115;SDS011;69423;47.608;19.366;2023-07-13T02:31:42;6.10;;;6.10;;
80115;SDS011;69423;47.608;19.366;2023-07-13T02:32:13;6.60;;;6.60;;
80115;SDS011;69423;47.608;19.366;2023-07-13T02:32:44;6.70;;;6.70;;
80115;SDS011;69423;47.608;19.366;2023-07-13T02:33:15;6.50;;;6.50;;
80115;SDS011;69423;47.608;19.366;2023-07-13T02:33:46;7.23;;;7.23;;
80115;SDS011;69423;47.608;19.366;2023-07-13T02:34:17;8.53;;;8.53;;
80115;SDS011;69423;47.608;19.366;2023-07-13T02:34:48;8.50;;;8.50;;
80115;SDS011;69423;47.608;19.366;2023-07-13T02:35:19;8.43;;;8.43;;
80115;SDS011;69423;47.608;19.366;2023-07-13T02:35:50;7.67;;;7.67;;
80115;SDS011;69423;47.608;19.366;2023-07-13T02:36:22;7.77;;;7.63;;
80115;SDS011;69423;47.608;19.366;2023-07-13T02:36:53;7.13;;;7.13;;
80115;SDS011;69423;47.608;19.366;2023-07-13T02:37:24;6.53;;;6.53;;
80115;SDS011;69423;47.608;19.366;2023-07-13T02:37:55;7.33;;;7.33;;
80115;SDS011;69423;47.608;19.366;2023-07-13T02:38:27;6.73;;;6.73;;
80115;SDS011;69423;47.608;19.366;2023-07-13T02:39:00;6.90;;;6.90;;
80115;SDS011;69423;47.608;19.366;2023-07-13T02:39:33;7.00;;;7.00;;
80115;SDS011;69423;47.608;19.366;2023-07-13T02:40:04;7.27;;;7.27;;
80115;SDS011;69423;47.608;19.366;2023-07-13T02:40:39;6.83;;;6.83;;
80115;SDS011;69423;47.608;19.366;2023-07-13T02:41:10;7.10;;;7.10;;
80115;SDS011;69423;47.608;19.366;2023-07-13T02:41:41;7.53;;;7.53;;
80115;SDS011;69423;47.608;19.366;2023-07-13T02:42:12;7.27;;;7.27;;
80115;SDS011;69423;47.608;19.366;2023-07-13T02:42:43;6.63;;;6.63;;
80115;SDS011;69423;47.608;19.366;2023-07-13T02:43:14;6.67;;;6.67;;
80115;SDS011;69423;47.608;19.366;2023-07-13T02:43:45;6.33;;;6.33;;
80115;SDS011;69423;47.608;19.366;2023-07-13T02:44:16;6.27;;;6.27;;
80115;SDS011;69423;47.608;19.366;2023-07-13T02:44:47;5.60;;;5.60;;
80115;SDS011;69423;47.608;19.366;2023-07-13T02:45:20;6.00;;;6.00;;
80115;SDS011;69423;47.608;19.366;2023-07-13T02:45:51;6.40;;;6.40;;
80115;SDS011;69423;47.608;19.366;2023-07-13T02:46:22;7.07;;;7.07;;
80115;SDS011;69423;47.608;19.366;2023-07-13T02:46:54;6.80;;;6.80;;
80115;SDS011;69423;47.608;19.366;2023-07-13T02:47:25;5.93;;;5.93;;
80115;SDS011;69423;47.608;19.366;2023-07-13T02:47:57;6.13;;;6.13;;
80115;SDS011;69423;47.608;19.366;2023-07-13T02:48:28;5.80;;;5.80;;
80115;SDS011;69423;47.608;19.366;2023-07-13T02:48:59;5.83;;;5.83;;
80115;SDS011;69423;47.608;19.366;2023-07-13T02:49:30;5.97;;;5.97;;
80115;SDS011;69423;47.608;19.366;2023-07-13T02:50:02;5.93;;;5.93;;
80115;SDS011;69423;47.608;19.366;2023-07-13T02:50:33;5.73;;;5.73;;
80115;SDS011;69423;47.608;19.366;2023-07-13T02:51:04;6.10;;;6.10;;
80115;SDS011;69423;47.608;19.366;2023-07-13T02:51:36;6.43;;;6.43;;
80115;SDS011;69423;47.608;19.366;2023-07-13T02:52:07;6.17;;;6.17;;
80115;SDS011;69423;47.608;19.366;2023-07-13T02:52:38;6.17;;;6.17;;
80115;SDS011;69423;47.608;19.366;2023-07-13T02:53:09;6.27;;;6.27;;
80115;SDS011;69423;47.608;19.366;2023-07-13T02:53:40;6.07;;;6.07;;
80115;SDS011;69423;47.608;19.366;2023-07-13T02:54:11;6.03;;;6.03;;
80115;SDS011;69423;47.608;19.366;2023-07-13T02:54:44;5.93;;;5.93;;
80115;SDS011;69423;47.608;19.366;2023-07-13T02:55:15;5.83;;;5.83;;
80115;SDS011;69423;47.608;19.366;2023-07-13T02:55:46;6.10;;;6.10;;
80115;SDS011;69423;47.608;19.366;2023-07-13T02:56:21;5.77;;;5.77;;
80115;SDS011;69423;47.608;19.366;2023-07-13T02:56:54;5.47;;;5.47;;
80115;SDS011;69423;47.608;19.366;2023-07-13T02:57:25;5.63;;;5.63;;
80115;SDS011;69423;47.608;19.366;2023-07-13T02:57:57;5.63;;;5.63;;
80115;SDS011;69423;47.608;19.366;2023-07-13T02:58:28;5.00;;;5.00;;
80115;SDS011;69423;47.608;19.366;2023-07-13T02:58:59;5.00;;;5.00;;
80115;SDS011;69423;47.608;19.366;2023-07-13T02:59:30;5.93;;;5.93;;
80115;SDS011;69423;47.608;19.366;2023-07-13T03:00:02;5.97;;;5.97;;
80115;SDS011;69423;47.608;19.366;2023-07-13T03:00:38;5.37;;;5.37;;
80115;SDS011;69423;47.608;19.366;2023-07-13T03:01:11;5.43;;;5.43;;
80115;SDS011;69423;47.608;19.366;2023-07-13T03:01:42;5.80;;;5.80;;
80115;SDS011;69423;47.608;19.366;2023-07-13T03:02:13;6.20;;;6.20;;
80115;SDS011;69423;47.608;19.366;2023-07-13T03:02:44;6.20;;;6.20;;
80115;SDS011;69423;47.608;19.366;2023-07-13T03:03:16;6.27;;;6.27;;
80115;SDS011;69423;47.608;19.366;2023-07-13T03:03:50;6.30;;;6.30;;
80115;SDS011;69423;47.608;19.366;2023-07-13T03:04:22;6.23;;;6.23;;
80115;SDS011;69423;47.608;19.366;2023-07-13T03:04:54;6.50;;;6.50;;
80115;SDS011;69423;47.608;19.366;2023-07-13T03:05:26;6.03;;;6.03;;
80115;SDS011;69423;47.608;19.366;2023-07-13T03:05:58;6.33;;;6.33;;
80115;SDS011;69423;47.608;19.366;2023-07-13T03:06:33;6.20;;;6.20;;
80115;SDS011;69423;47.608;19.366;2023-07-13T03:07:04;6.30;;;6.30;;
80115;SDS011;69423;47.608;19.366;2023-07-13T03:07:35;5.87;;;5.87;;
80115;SDS011;69423;47.608;19.366;2023-07-13T03:08:07;6.17;;;6.17;;
80115;SDS011;69423;47.608;19.366;2023-07-13T03:08:38;6.60;;;6.60;;
80115;SDS011;69423;47.608;19.366;2023-07-13T03:09:10;6.33;;;6.33;;
80115;SDS011;69423;47.608;19.366;2023-07-13T03:09:43;6.27;;;6.27;;
80115;SDS011;69423;47.608;19.366;2023-07-13T03:10:14;6.70;;;6.70;;
80115;SDS011;69423;47.608;19.366;2023-07-13T03:10:45;6.67;;;6.67;;
80115;SDS011;69423;47.608;19.366;2023-07-13T03:11:17;6.20;;;6.20;;
80115;SDS011;69423;47.608;19.366;2023-07-13T03:11:52;6.17;;;6.17;;